Time;durP1;ratioP1;P1;durP2;ratioP2;P2;SDS_P1;SDS_P2;PMS_P1;PMS_P2;Temp;Humidity;BMP_temperature;BMP_pressure;BME280_temperature;BME280_humidity;BME280_pressure;Samples;Min_cycle;Max_cycle;Signal;HPM_P1;HPM_P2
2023/06/02 00:02:03;;;;;;;1999.90;999.90;;;25.00;99.20;;;;;;4945290;28;20048;-72
2023/06/02 00:04:30;;;;;;;1999.90;999.90;;;25.40;98.50;;;;;;4950032;28;20036;-74
2023/06/02 00:07:03;;;;;;;1999.90;999.90;;;25.50;98.40;;;;;;4950910;28;20039;-70
2023/06/02 00:09:41;;;;;;;1999.90;999.90;;;25.70;97.70;;;;;;4957233;28;20026;-73
2023/06/02 00:12:10;;;;;;;1999.90;999.90;;;26.10;97.40;;;;;;4946606;28;20102;-72
2023/06/02 00:14:39;;;;;;;1999.90;999.90;;;26.70;96.30;;;;;;4950163;28;20363;-73
2023/06/02 00:17:07;;;;;;;1999.90;999.90;;;26.90;95.80;;;;;;4945295;28;20034;-70
2023/06/02 00:19:35;;;;;;;1999.90;999.90;;;26.80;96.20;;;;;;4936223;28;20043;-72
2023/06/02 00:22:07;;;;;;;1999.90;999.90;;;26.60;96.80;;;;;;4940466;28;20054;-76
2023/06/02 00:24:34;;;;;;;1999.90;999.90;;;26.60;97.40;;;;;;4951021;28;20031;-70
2023/06/02 00:27:02;;;;;;;1999.90;999.90;;;27.10;96.70;;;;;;4949048;28;20049;-72
2023/06/02 00:29:29;;;;;;;1999.90;999.90;;;27.50;95.70;;;;;;4943852;28;20036;-71
2023/06/02 00:31:56;;;;;;;1999.90;999.90;;;27.80;94.90;;;;;;4944180;28;20031;-73
2023/06/02 00:34:24;;;;;;;1999.90;999.90;;;27.30;94.40;;;;;;4941732;28;20023;-72
2023/06/02 00:36:51;;;;;;;1999.90;999.90;;;26.50;95.00;;;;;;4942392;28;20027;-71
2023/06/02 00:39:18;;;;;;;1999.90;999.90;;;25.40;95.60;;;;;;4941020;28;20031;-75
2023/06/02 00:41:46;;;;;;;1999.90;999.90;;;24.50;96.90;;;;;;4930416;28;20246;-76
2023/06/02 00:44:15;;;;;;;1999.90;999.90;;;24.00;98.00;;;;;;4934047;28;20074;-74
2023/06/02 00:46:42;;;;;;;1999.90;999.90;;;24.30;98.80;;;;;;4934819;28;20034;-79
2023/06/02 00:49:09;;;;;;;1999.90;999.90;;;25.20;98.50;;;;;;4931872;28;20026;-74
2023/06/02 00:51:42;;;;;;;1999.90;999.90;;;26.40;96.50;;;;;;4933118;28;20054;-80
2023/06/02 00:54:10;;;;;;;1999.90;999.90;;;27.40;95.50;;;;;;4922145;28;20078;-73
2023/06/02 00:56:39;;;;;;;1999.90;999.90;;;28.00;94.60;;;;;;4942961;28;20024;-75
2023/06/02 00:59:07;;;;;;;1999.90;999.90;;;28.30;94.20;;;;;;4929926;28;20385;-77
2023/06/02 01:01:35;;;;;;;1999.90;999.90;;;28.40;93.30;;;;;;4942878;28;20493;-75
2023/06/02 01:04:03;;;;;;;1999.90;999.90;;;28.40;94.20;;;;;;4946057;28;20035;-74
2023/06/02 01:06:36;;;;;;;1999.90;999.90;;;28.60;93.90;;;;;;4942099;28;20027;-75
2023/06/02 01:09:07;;;;;;;1999.90;999.90;;;28.80;93.80;;;;;;4950731;28;20114;-72
2023/06/02 01:11:35;;;;;;;1999.90;999.90;;;28.80;93.40;;;;;;4946353;28;20027;-73
2023/06/02 01:14:03;;;;;;;1999.90;999.90;;;28.70;93.20;;;;;;4944264;28;20038;-72
2023/06/02 01:16:32;;;;;;;1999.90;999.90;;;28.40;93.50;;;;;;4942309;28;20620;-71
2023/06/02 01:19:01;;;;;;;1999.90;999.90;;;28.00;94.10;;;;;;4950466;28;20058;-73
2023/06/02 01:21:34;;;;;;;1999.90;999.90;;;28.10;93.60;;;;;;4945855;28;20032;-77
2023/06/02 01:24:01;;;;;;;1999.90;999.90;;;28.30;93.70;;;;;;4946710;28;20031;-71
2023/06/02 01:26:33;;;;;;;1999.90;999.90;;;28.60;92.90;;;;;;4945432;28;20058;-75
2023/06/02 01:29:05;;;;;;;1999.90;999.90;;;28.70;92.90;;;;;;4952478;28;20130;-77
2023/06/02 01:31:46;;;;;;;1999.90;999.90;;;27.70;93.30;;;;;;4954739;28;20039;-70
2023/06/02 01:34:31;;;;;;;1999.90;999.90;;;26.60;94.40;;;;;;4947914;28;20039;-71
2023/06/02 01:36:59;;;;;;;1999.90;999.90;;;25.70;95.40;;;;;;4940455;28;20090;-73
2023/06/02 01:39:29;;;;;;;1999.90;999.90;;;25.70;95.80;;;;;;4945042;28;20024;-69
2023/06/02 01:41:59;;;;;;;1999.90;999.90;;;25.50;96.10;;;;;;4945045;28;20055;-73
2023/06/02 01:44:28;;;;;;;1999.90;999.90;;;25.00;96.40;;;;;;4937766;28;20026;-69
2023/06/02 01:46:55;;;;;;;1999.90;999.90;;;24.50;97.20;;;;;;4946724;28;20053;-74
2023/06/02 01:49:22;;;;;;;1999.90;999.90;;;24.20;97.60;;;;;;4946954;28;20038;-68
2023/06/02 01:51:50;;;;;;;1999.90;999.90;;;23.80;97.80;;;;;;4960280;28;20062;-78
2023/06/02 01:54:17;;;;;;;1999.90;999.90;;;23.50;98.90;;;;;;4957483;28;20038;-73
2023/06/02 01:56:44;;;;;;;1999.90;999.90;;;23.90;99.10;;;;;;4956605;28;20055;-71
2023/06/02 01:59:12;;;;;;;1999.90;999.90;;;25.00;98.20;;;;;;4947565;28;20031;-71
2023/06/02 02:01:42;;;;;;;1999.90;999.90;;;25.10;97.10;;;;;;4941239;28;20046;-72
2023/06/02 02:04:09;;;;;;;1999.90;999.90;;;25.00;96.70;;;;;;4947889;28;20055;-73
2023/06/02 02:06:37;;;;;;;1999.90;999.90;;;25.10;97.00;;;;;;4946604;28;21626;-72
2023/06/02 02:09:13;;;;;;;1999.90;999.90;;;25.90;96.80;;;;;;4931789;28;20090;-72
2023/06/02 02:11:40;;;;;;;1999.90;999.90;;;26.80;95.40;;;;;;4947612;28;20058;-71
2023/06/02 02:14:08;;;;;;;1999.90;999.90;;;27.10;94.70;;;;;;4947053;28;20016;-69
2023/06/02 02:16:36;;;;;;;1999.90;999.90;;;26.70;95.10;;;;;;4943906;28;20032;-72
2023/06/02 02:19:04;;;;;;;1999.90;999.90;;;26.70;95.20;;;;;;4950189;28;20026;-74
2023/06/02 02:21:33;;;;;;;1999.90;999.90;;;26.80;95.20;;;;;;4949629;28;20035;-78
2023/06/02 02:24:00;;;;;;;1999.90;999.90;;;26.60;94.90;;;;;;4953332;28;20034;-73
2023/06/02 02:26:27;;;;;;;1999.90;999.90;;;25.40;95.40;;;;;;4947070;28;20023;-71
2023/06/02 02:28:55;;;;;;;1999.90;999.90;;;24.30;96.60;;;;;;4946502;28;20032;-73
2023/06/02 02:31:22;;;;;;;1999.90;999.90;;;23.80;97.80;;;;;;4943046;28;20067;-75
2023/06/02 02:33:50;;;;;;;1999.90;999.90;;;23.70;97.90;;;;;;4951825;28;20071;-72
2023/06/02 02:36:18;;;;;;;1999.90;999.90;;;23.70;98.60;;;;;;4944835;28;20042;-78
2023/06/02 02:38:47;;;;;;;1999.90;999.90;;;24.50;98.10;;;;;;4929560;28;20386;-72
2023/06/02 02:41:15;;;;;;;1999.90;999.90;;;25.20;97.50;;;;;;4929188;28;20051;-75
2023/06/02 02:43:42;;;;;;;1999.90;999.90;;;25.20;96.60;;;;;;4945759;28;20043;-72
2023/06/02 02:46:09;;;;;;;1999.90;999.90;;;25.30;96.10;;;;;;4949479;28;20493;-74
2023/06/02 02:48:37;;;;;;;1999.90;999.90;;;25.50;96.00;;;;;;4950718;28;20039;-77
2023/06/02 02:51:04;;;;;;;1999.90;999.90;;;25.30;96.30;;;;;;4945097;28;20051;-76
2023/06/02 02:53:31;;;;;;;1999.90;999.90;;;24.70;96.60;;;;;;4947481;28;20082;-74
2023/06/02 02:55:59;;;;;;;1999.90;999.90;;;24.20;97.20;;;;;;4954105;28;20102;-76
2023/06/02 02:58:26;;;;;;;1999.90;999.90;;;23.40;97.90;;;;;;4951696;28;20024;-75
2023/06/02 03:00:53;;;;;;;1999.90;999.90;;;23.20;98.80;;;;;;4951060;28;20473;-78
2023/06/02 03:03:21;;;;;;;1999.90;999.90;;;23.50;98.60;;;;;;4943914;28;20081;-78
2023/06/02 03:05:49;;;;;;;1999.90;999.90;;;23.80;98.50;;;;;;4948641;28;20047;-76
2023/06/02 03:08:17;;;;;;;1999.90;999.90;;;23.80;98.60;;;;;;4928043;28;20035;-77
2023/06/02 03:10:47;;;;;;;1999.90;999.90;;;24.00;98.10;;;;;;4951626;28;20079;-72
2023/06/02 03:13:14;;;;;;;1999.90;999.90;;;24.00;98.00;;;;;;4946070;28;20489;-74
2023/06/02 03:15:41;;;;;;;1999.90;999.90;;;23.60;98.50;;;;;;4948349;28;20051;-75
2023/06/02 03:18:08;;;;;;;1999.90;999.90;;;23.10;99.10;;;;;;4952281;28;20024;-77
2023/06/02 03:20:36;;;;;;;1999.90;999.90;;;22.70;99.70;;;;;;4950961;28;20471;-75
2023/06/02 03:23:05;;;;;;;1999.90;999.90;;;22.50;99.90;;;;;;4944120;28;20130;-77
2023/06/02 03:25:32;;;;;;;1999.90;999.90;;;22.20;99.90;;;;;;4948350;28;20031;-76
2023/06/02 03:27:59;;;;;;;1999.90;999.90;;;22.10;99.90;;;;;;4952687;28;20039;-78
2023/06/02 03:30:27;;;;;;;1999.90;999.90;;;22.00;99.90;;;;;;4944310;28;20058;-76
2023/06/02 03:32:54;;;;;;;1999.90;999.90;;;22.00;99.90;;;;;;4948018;28;20035;-75
2023/06/02 03:35:22;;;;;;;1999.90;999.90;;;21.90;99.90;;;;;;4965268;28;20031;-73
2023/06/02 03:37:49;;;;;;;1999.90;999.90;;;21.80;99.90;;;;;;4949224;28;20041;-75
2023/06/02 03:40:16;;;;;;;1999.90;999.90;;;21.80;99.90;;;;;;4965813;28;20031;-73
2023/06/02 03:42:44;;;;;;;1999.90;999.90;;;21.90;99.90;;;;;;4942798;28;20175;-74
2023/06/02 03:45:13;;;;;;;1999.90;999.90;;;22.00;99.90;;;;;;4943206;28;20027;-74
2023/06/02 03:47:40;;;;;;;1999.90;999.90;;;22.00;99.90;;;;;;4941970;28;20388;-77
2023/06/02 03:50:07;;;;;;;1999.90;999.90;;;22.10;99.90;;;;;;4948141;28;20035;-73
2023/06/02 03:52:35;;;;;;;1999.90;999.90;;;22.00;99.90;;;;;;4943666;28;20237;-75
2023/06/02 03:55:02;;;;;;;1999.90;999.90;;;21.70;99.90;;;;;;4942763;28;20473;-75
2023/06/02 03:57:30;;;;;;;1999.90;999.90;;;21.60;99.90;;;;;;4951192;28;20101;-76
2023/06/02 03:59:57;;;;;;;1999.90;999.90;;;21.40;99.90;;;;;;4943776;28;20027;-75
2023/06/02 04:02:25;;;;;;;1999.90;999.90;;;21.40;99.90;;;;;;4946391;28;20067;-73
2023/06/02 04:04:52;;;;;;;1999.90;999.90;;;21.40;99.90;;;;;;4946476;28;20426;-78
2023/06/02 04:07:20;;;;;;;1999.90;999.90;;;21.50;99.90;;;;;;4945405;28;20051;-75
2023/06/02 04:09:47;;;;;;;1999.90;999.90;;;21.50;99.90;;;;;;4951346;28;20115;-78
2023/06/02 04:12:14;;;;;;;1999.90;999.90;;;21.50;99.90;;;;;;4942789;28;20027;-76
2023/06/02 04:14:42;;;;;;;1999.90;999.90;;;21.50;99.90;;;;;;4940827;28;20248;-73
2023/06/02 04:17:09;;;;;;;1999.90;999.90;;;21.40;99.90;;;;;;4946139;28;20031;-73
2023/06/02 04:19:37;;;;;;;1999.90;999.90;;;21.40;99.90;;;;;;4948947;28;20122;-72
2023/06/02 04:22:05;;;;;;;1999.90;999.90;;;21.30;99.90;;;;;;4950878;28;20031;-73
2023/06/02 04:24:32;;;;;;;1999.90;999.90;;;21.30;99.90;;;;;;4945102;28;20040;-76
2023/06/02 04:27:00;;;;;;;1999.90;999.90;;;21.30;99.90;;;;;;4948225;28;20471;-75
2023/06/02 04:29:28;;;;;;;1999.90;999.90;;;21.30;99.90;;;;;;4950129;28;20025;-74
2023/06/02 04:31:55;;;;;;;1999.90;999.90;;;21.30;99.90;;;;;;4945032;28;20031;-77
2023/06/02 04:34:22;;;;;;;1999.90;999.90;;;21.30;99.90;;;;;;4944485;28;20063;-75
2023/06/02 04:36:50;;;;;;;1999.90;999.90;;;21.30;99.90;;;;;;4945009;28;20047;-74
2023/06/02 04:39:17;;;;;;;1999.90;999.90;;;21.30;99.90;;;;;;4944521;28;20359;-77
2023/06/02 04:41:46;;;;;;;1999.90;999.90;;;21.30;99.90;;;;;;4947148;28;20050;-75
2023/06/02 04:44:16;;;;;;;1999.90;999.90;;;21.20;99.90;;;;;;4945623;28;20032;-71
2023/06/02 04:46:46;;;;;;;1999.90;999.90;;;21.10;99.90;;;;;;4951241;28;20082;-74
2023/06/02 04:49:13;;;;;;;1999.90;999.90;;;21.00;99.90;;;;;;4943764;28;20038;-74
2023/06/02 04:51:41;;;;;;;1999.90;999.90;;;21.00;99.90;;;;;;4946289;28;20114;-73
2023/06/02 04:54:09;;;;;;;1999.90;999.90;;;21.00;99.90;;;;;;4946583;28;20027;-70
2023/06/02 04:56:37;;;;;;;1999.90;999.90;;;21.00;99.90;;;;;;4942516;28;20023;-74
2023/06/02 04:59:04;;;;;;;1999.90;999.90;;;21.00;99.90;;;;;;4955802;28;20033;-69
2023/06/02 05:01:33;;;;;;;1999.90;999.90;;;21.10;99.90;;;;;;4945027;28;20031;-74
2023/06/02 05:04:00;;;;;;;1999.90;999.90;;;21.10;99.90;;;;;;4935115;28;20500;-69
2023/06/02 05:06:28;;;;;;;1999.90;999.90;;;21.10;99.90;;;;;;4937776;28;20027;-71
2023/06/02 05:08:56;;;;;;;1999.90;999.90;;;21.10;99.90;;;;;;4949472;28;20043;-71
2023/06/02 05:11:23;;;;;;;1999.90;999.90;;;21.10;99.90;;;;;;4950705;28;20212;-70
2023/06/02 05:13:51;;;;;;;1999.90;999.90;;;21.10;99.90;;;;;;4942835;28;20038;-69
2023/06/02 05:16:19;;;;;;;1999.90;999.90;;;21.10;99.90;;;;;;4937677;28;21036;-70
2023/06/02 05:18:46;;;;;;;1999.90;999.90;;;21.00;99.90;;;;;;4957513;28;20066;-70
2023/06/02 05:21:14;;;;;;;1999.90;999.90;;;20.90;99.90;;;;;;4953501;28;20105;-71
2023/06/02 05:23:42;;;;;;;1999.90;999.90;;;20.90;99.90;;;;;;4960966;28;20035;-73
2023/06/02 05:26:09;;;;;;;1999.90;999.90;;;20.90;99.90;;;;;;4935103;28;20082;-71
2023/06/02 05:28:36;;;;;;;1999.90;999.90;;;21.00;99.90;;;;;;4945232;28;20414;-69
2023/06/02 05:31:03;;;;;;;1999.90;999.90;;;21.00;99.90;;;;;;4948132;28;20141;-74
2023/06/02 05:33:31;;;;;;;1999.90;999.90;;;20.90;99.90;;;;;;4950055;28;20051;-73
2023/06/02 05:35:58;;;;;;;1999.90;999.90;;;20.90;99.90;;;;;;4947707;28;20034;-73
2023/06/02 05:38:25;;;;;;;1999.90;999.90;;;20.80;99.90;;;;;;4934067;28;20023;-73
2023/06/02 05:40:53;;;;;;;1999.90;999.90;;;20.80;99.90;;;;;;4949520;28;20494;-73
2023/06/02 05:43:20;;;;;;;1999.90;999.90;;;20.70;99.90;;;;;;4944757;28;20250;-74
2023/06/02 05:45:47;;;;;;;1999.90;999.90;;;20.70;99.90;;;;;;4947379;28;20770;-73
2023/06/02 05:48:15;;;;;;;1999.90;999.90;;;20.70;99.90;;;;;;4954663;28;20106;-76
2023/06/02 05:50:43;;;;;;;1999.90;999.90;;;20.70;99.90;;;;;;4955829;28;20066;-72
2023/06/02 05:53:10;;;;;;;1999.90;999.90;;;20.70;99.90;;;;;;4947570;28;20123;-75
2023/06/02 05:55:38;;;;;;;1999.90;999.90;;;20.60;99.90;;;;;;4942195;28;20024;-74
2023/06/02 05:58:05;;;;;;;1999.90;999.90;;;20.50;99.90;;;;;;4948323;28;20051;-73
2023/06/02 06:00:32;;;;;;;1999.90;999.90;;;20.50;99.90;;;;;;4941990;28;20110;-74
2023/06/02 06:03:00;;;;;;;1999.90;999.90;;;20.50;99.90;;;;;;4947072;28;20039;-75
2023/06/02 06:05:27;;;;;;;1999.90;999.90;;;20.60;99.90;;;;;;4944987;28;20090;-73
2023/06/02 06:07:54;;;;;;;1999.90;999.90;;;20.60;99.90;;;;;;4951099;28;20035;-70
2023/06/02 06:10:22;;;;;;;1999.90;999.90;;;20.70;99.90;;;;;;4948965;28;20073;-70
2023/06/02 06:12:49;;;;;;;1999.90;999.90;;;20.70;99.90;;;;;;4926176;28;20039;-72
2023/06/02 06:15:17;;;;;;;1999.90;999.90;;;20.60;99.90;;;;;;4943107;28;20032;-75
2023/06/02 06:17:51;;;;;;;1999.90;999.90;;;20.60;99.90;;;;;;4948634;28;20389;-73
2023/06/02 06:20:20;;;;;;;1999.90;999.90;;;20.60;99.90;;;;;;4949449;28;20467;-69
2023/06/02 06:22:47;;;;;;;1999.90;999.90;;;20.50;99.90;;;;;;4941407;28;20486;-74
2023/06/02 06:25:15;;;;;;;1999.90;999.90;;;20.50;99.90;;;;;;4946520;28;20102;-70
2023/06/02 06:27:42;;;;;;;1999.90;999.90;;;20.50;99.90;;;;;;4938658;28;20039;-74
2023/06/02 06:30:10;;;;;;;1999.90;999.90;;;20.50;99.90;;;;;;4946515;28;20106;-72
2023/06/02 06:32:37;;;;;;;1999.90;999.90;;;20.30;99.90;;;;;;4943067;28;20042;-73
2023/06/02 06:35:05;;;;;;;1999.90;999.90;;;20.20;99.90;;;;;;4946766;28;20039;-71
2023/06/02 06:37:33;;;;;;;1999.90;999.90;;;20.00;99.90;;;;;;4948508;28;20035;-69
2023/06/02 06:40:00;;;;;;;1999.90;999.90;;;19.80;99.90;;;;;;4951710;28;20028;-72
2023/06/02 06:42:27;;;;;;;1999.90;999.90;;;19.70;99.90;;;;;;4949620;28;20042;-73
2023/06/02 06:44:55;;;;;;;1999.90;999.90;;;19.50;99.90;;;;;;4955721;28;20102;-70
2023/06/02 06:47:22;;;;;;;1999.90;999.90;;;19.30;99.90;;;;;;4952074;28;20042;-74
2023/06/02 06:49:51;;;;;;;1999.90;999.90;;;19.20;99.90;;;;;;4936179;28;20482;-70
2023/06/02 06:52:19;;;;;;;1999.90;999.90;;;19.10;99.90;;;;;;4941766;28;20058;-70
2023/06/02 06:54:46;;;;;;;1999.90;999.90;;;19.00;99.90;;;;;;4947761;28;20734;-74
2023/06/02 06:57:15;;;;;;;1999.90;999.90;;;18.90;99.90;;;;;;4949018;28;21085;-70
2023/06/02 06:59:43;;;;;;;1999.90;999.90;;;18.90;99.90;;;;;;4953013;28;20039;-69
2023/06/02 07:02:10;;;;;;;1999.90;999.90;;;18.80;99.90;;;;;;4943283;28;20379;-71
2023/06/02 07:04:37;;;;;;;1999.90;999.90;;;18.70;99.90;;;;;;4951841;28;20039;-69
2023/06/02 07:07:06;;;;;;;1999.90;999.90;;;18.60;99.90;;;;;;4952537;28;20078;-74
2023/06/02 07:09:33;;;;;;;1999.90;999.90;;;18.50;99.90;;;;;;4950389;28;20031;-72
2023/06/02 07:12:00;;;;;;;1999.90;999.90;;;18.40;99.90;;;;;;4940011;28;20490;-69
2023/06/02 07:14:29;;;;;;;1999.90;999.90;;;18.40;99.90;;;;;;4948213;28;20038;-72
2023/06/02 07:16:56;;;;;;;1999.90;999.90;;;18.20;99.90;;;;;;4940047;28;20031;-71
2023/06/02 07:19:23;;;;;;;1999.90;999.90;;;18.20;99.90;;;;;;4952355;28;20027;-69
2023/06/02 07:21:51;;;;;;;1999.90;999.90;;;18.10;99.90;;;;;;4949312;28;20102;-69
2023/06/02 07:24:20;;;;;;;1999.90;999.90;;;18.00;99.90;;;;;;4944148;28;20038;-69
2023/06/02 07:26:47;;;;;;;1999.90;999.90;;;17.90;99.90;;;;;;4943702;28;20031;-68
2023/06/02 07:29:18;;;;;;;1999.90;999.90;;;17.80;99.90;;;;;;4944379;28;20035;-70
2023/06/02 07:31:45;;;;;;;1999.90;999.90;;;17.80;99.90;;;;;;4942286;28;20030;-68
2023/06/02 07:34:13;;;;;;;1999.90;999.90;;;17.80;99.90;;;;;;4945131;28;20027;-69
2023/06/02 07:36:41;;;;;;;1999.90;999.90;;;17.80;99.90;;;;;;4943533;28;20037;-75
2023/06/02 07:39:08;;;;;;;1999.90;999.90;;;17.80;99.90;;;;;;4947956;28;20028;-72
2023/06/02 07:41:36;;;;;;;1999.90;999.90;;;17.80;99.90;;;;;;4943088;28;20039;-70
2023/06/02 07:44:03;;;;;;;1999.90;999.90;;;17.90;99.90;;;;;;4947176;28;20039;-72
2023/06/02 07:46:30;;;;;;;1999.90;999.90;;;17.90;99.90;;;;;;4941445;28;20031;-75
2023/06/02 07:48:58;;;;;;;1999.90;999.90;;;17.90;99.90;;;;;;4941843;28;20501;-72
2023/06/02 07:51:25;;;;;;;1999.90;999.90;;;17.90;99.90;;;;;;4947251;28;20034;-76
2023/06/02 07:53:53;;;;;;;1999.90;999.90;;;17.80;99.90;;;;;;4945666;28;20235;-76
2023/06/02 07:56:21;;;;;;;1999.90;999.90;;;17.70;99.90;;;;;;4949288;28;20031;-75
2023/06/02 07:58:48;;;;;;;1999.90;999.90;;;17.70;99.90;;;;;;4943325;28;20027;-75
2023/06/02 08:01:16;;;;;;;1999.90;999.90;;;17.60;99.90;;;;;;4942432;28;20043;-74
2023/06/02 08:03:43;;;;;;;1999.90;999.90;;;17.60;99.90;;;;;;4944513;28;20039;-72
2023/06/02 08:06:10;;;;;;;1999.90;999.90;;;17.60;99.90;;;;;;4942773;28;20032;-70
2023/06/02 08:08:38;;;;;;;1999.90;999.90;;;17.50;99.90;;;;;;4949145;28;20038;-73
2023/06/02 08:11:05;;;;;;;1999.90;999.90;;;17.40;99.90;;;;;;4941558;28;20028;-73
2023/06/02 08:13:32;;;;;;;1999.90;999.90;;;17.40;99.90;;;;;;4946574;28;20415;-71
2023/06/02 08:16:00;;;;;;;1999.90;999.90;;;17.30;99.90;;;;;;4949974;28;20581;-73
2023/06/02 08:18:27;;;;;;;1999.90;999.90;;;17.20;99.90;;;;;;4949453;28;20059;-77
2023/06/02 08:20:55;;;;;;;1999.90;999.90;;;17.20;99.90;;;;;;4947481;28;20086;-73
2023/06/02 08:23:22;;;;;;;1999.90;999.90;;;17.10;99.90;;;;;;4943963;28;20043;-72
2023/06/02 08:25:50;;;;;;;1999.90;999.90;;;17.00;99.90;;;;;;4945182;28;20034;-76
2023/06/02 08:28:24;;;;;;;1999.90;999.90;;;16.90;99.90;;;;;;4944737;28;20058;-79
2023/06/02 08:30:52;;;;;;;1999.90;999.90;;;16.90;99.90;;;;;;4942749;28;20034;-75
2023/06/02 08:33:21;;;;;;;1999.90;999.90;;;16.80;99.90;;;;;;4952888;28;20129;-71
2023/06/02 08:35:50;;;;;;;1999.90;999.90;;;16.70;99.90;;;;;;4946842;28;20115;-71
2023/06/02 08:38:21;;;;;;;1999.90;999.90;;;16.60;99.90;;;;;;4949390;28;20053;-74
2023/06/02 08:40:49;;;;;;;1999.90;999.90;;;16.60;99.90;;;;;;4942588;28;20570;-71
2023/06/02 08:43:16;;;;;;;1999.90;999.90;;;16.70;99.90;;;;;;4943533;28;20107;-72
2023/06/02 08:45:46;;;;;;;1999.90;999.90;;;16.60;99.90;;;;;;4943383;28;20505;-74
2023/06/02 08:48:18;;;;;;;1999.90;999.90;;;16.60;99.90;;;;;;4942503;28;20046;-78
2023/06/02 08:50:54;;;;;;;1999.90;999.90;;;16.60;99.90;;;;;;4949864;28;20034;-73
2023/06/02 08:53:24;;;;;;;1999.90;999.90;;;16.50;99.90;;;;;;4950788;28;20110;-72
2023/06/02 08:55:51;;;;;;;1999.90;999.90;;;16.40;99.90;;;;;;4959228;28;20035;-77
2023/06/02 08:58:18;;;;;;;1999.90;999.90;;;16.30;99.90;;;;;;4950588;28;20035;-73
2023/06/02 09:00:46;;;;;;;1999.90;999.90;;;16.40;99.90;;;;;;4937538;28;20071;-77
2023/06/02 09:03:16;;;;;;;1999.90;999.90;;;16.40;99.90;;;;;;4949068;28;20051;-72
2023/06/02 09:05:44;;;;;;;1999.90;999.90;;;16.40;99.90;;;;;;4939275;28;20804;-69
2023/06/02 09:08:13;;;;;;;1999.90;999.90;;;16.40;99.90;;;;;;4936586;28;20765;-74
2023/06/02 09:10:42;;;;;;;1999.90;999.90;;;16.40;99.90;;;;;;4944589;28;20474;-76
2023/06/02 09:13:30;;;;;;;1999.90;999.90;;;16.40;99.90;;;;;;4939337;28;20034;-75
2023/06/02 09:15:59;;;;;;;1999.90;999.90;;;16.50;99.90;;;;;;4948668;28;20422;-74
2023/06/02 09:18:27;;;;;;;1999.90;999.90;;;16.50;99.90;;;;;;4945335;28;20067;-70
2023/06/02 09:20:58;;;;;;;1999.90;999.90;;;16.50;99.90;;;;;;4940065;28;20035;-74
2023/06/02 09:23:47;;;;;;;1999.90;999.90;;;16.50;99.90;;;;;;4945243;28;20071;-72
2023/06/02 09:26:25;;;;;;;1999.90;999.90;;;16.50;99.90;;;;;;4949403;28;20026;-77
2023/06/02 09:29:13;;;;;;;1999.90;999.90;;;16.50;99.90;;;;;;4940306;28;20043;-71
2023/06/02 09:31:45;;;;;;;1999.90;999.90;;;16.50;99.90;;;;;;4944216;28;20494;-74
2023/06/02 09:34:14;;;;;;;1999.90;999.90;;;16.40;99.90;;;;;;4941385;28;20031;-76
2023/06/02 09:36:42;;;;;;;1999.90;999.90;;;16.30;99.90;;;;;;4943656;28;20039;-76
2023/06/02 09:39:10;;;;;;;1999.90;999.90;;;16.20;99.90;;;;;;4945008;28;20161;-74
2023/06/02 09:41:39;;;;;;;1999.90;999.90;;;16.10;99.90;;;;;;4944607;28;20126;-72
2023/06/02 09:44:18;;;;;;;1999.90;999.90;;;16.00;99.90;;;;;;4939982;28;20050;-71
2023/06/02 09:46:46;;;;;;;1999.90;999.90;;;16.00;99.90;;;;;;4940723;28;20027;-72
2023/06/02 09:49:13;;;;;;;1999.90;999.90;;;16.00;99.90;;;;;;4947838;28;20479;-72
2023/06/02 09:51:41;;;;;;;1999.90;999.90;;;16.10;99.90;;;;;;4948169;28;20062;-72
2023/06/02 09:54:08;;;;;;;1999.90;999.90;;;16.10;99.90;;;;;;4941543;28;20046;-72
2023/06/02 09:56:37;;;;;;;1999.90;999.90;;;16.00;99.90;;;;;;4938735;28;20035;-70
2023/06/02 09:59:05;;;;;;;1999.90;999.90;;;16.00;99.90;;;;;;4945021;28;20042;-75
2023/06/02 10:01:34;;;;;;;1999.90;999.90;;;16.00;99.90;;;;;;4946593;28;20048;-75
2023/06/02 10:04:03;;;;;;;1999.90;999.90;;;16.00;99.90;;;;;;4942847;28;20119;-74
2023/06/02 10:07:06;;;;;;;1999.90;999.90;;;16.00;99.90;;;;;;4922511;28;20382;-70
2023/06/02 10:10:17;;;;;;;1999.90;999.90;;;15.90;99.90;;;;;;4942684;28;20098;-70
2023/06/02 10:13:12;;;;;;;1999.90;999.90;;;15.90;99.90;;;;;;4948286;28;20031;-76
2023/06/02 10:15:53;;;;;;;1999.90;999.90;;;15.90;99.90;;;;;;4938191;28;20388;-73
2023/06/02 10:18:45;;;;;;;1999.90;999.90;;;15.80;99.90;;;;;;4939816;28;20482;-72
2023/06/02 10:21:33;;;;;;;1999.90;999.90;;;15.70;99.90;;;;;;4940435;28;20038;-75
2023/06/02 10:24:28;;;;;;;1999.90;999.90;;;15.70;99.90;;;;;;4940342;28;20082;-73
2023/06/02 10:27:25;;;;;;;1999.90;999.90;;;15.60;99.90;;;;;;4927085;28;20054;-72
2023/06/02 10:29:56;;;;;;;1999.90;999.90;;;15.60;99.90;;;;;;4942820;28;20074;-71
2023/06/02 10:32:41;;;;;;;1999.90;999.90;;;15.60;99.90;;;;;;4956655;28;20385;-74
2023/06/02 10:35:09;;;;;;;1999.90;999.90;;;15.60;99.90;;;;;;4957924;28;20038;-77
2023/06/02 10:37:37;;;;;;;1999.90;999.90;;;15.60;99.90;;;;;;4958010;28;20063;-76
2023/06/02 10:40:04;;;;;;;1999.90;999.90;;;15.60;99.90;;;;;;4960151;28;20038;-75
2023/06/02 10:42:32;;;;;;;1999.90;999.90;;;15.50;99.90;;;;;;4948548;28;20064;-75
2023/06/02 10:45:20;;;;;;;1999.90;999.90;;;15.50;99.90;;;;;;4947710;28;20039;-73
2023/06/02 10:47:48;;;;;;;1999.90;999.90;;;15.40;99.90;;;;;;4946064;28;20039;-72
2023/06/02 10:50:21;;;;;;;1999.90;999.90;;;15.40;99.90;;;;;;4940566;28;20082;-71
2023/06/02 10:53:00;;;;;;;1999.90;999.90;;;15.40;99.90;;;;;;4949000;28;20058;-71
2023/06/02 10:55:31;;;;;;;1999.90;999.90;;;15.30;99.90;;;;;;4938201;28;20031;-72
2023/06/02 10:58:12;;;;;;;1999.90;999.90;;;15.30;99.90;;;;;;4949430;28;20039;-77
2023/06/02 11:00:46;;;;;;;1999.90;999.90;;;15.30;99.90;;;;;;4944750;28;20387;-70
2023/06/02 11:03:17;;;;;;;1999.90;999.90;;;15.20;99.90;;;;;;4943309;28;20090;-71
2023/06/02 11:05:46;;;;;;;1999.90;999.90;;;15.20;99.90;;;;;;4947143;28;20114;-73
2023/06/02 11:08:18;;;;;;;1999.90;999.90;;;15.10;99.90;;;;;;4945336;28;20043;-71
2023/06/02 11:10:52;;;;;;;1999.90;999.90;;;15.10;99.90;;;;;;4944485;28;20048;-71
2023/06/02 11:13:20;;;;;;;1999.90;999.90;;;15.10;99.90;;;;;;4944315;28;20038;-71
2023/06/02 11:15:58;;;;;;;1999.90;999.90;;;15.00;99.90;;;;;;4944288;28;20082;-72
2023/06/02 11:18:34;;;;;;;1999.90;999.90;;;15.10;99.90;;;;;;4927162;28;20032;-70
2023/06/02 11:21:03;;;;;;;1999.90;999.90;;;15.10;99.90;;;;;;4945796;28;20027;-71
2023/06/02 11:23:31;;;;;;;1999.90;999.90;;;15.20;99.90;;;;;;4950359;28;20495;-75
2023/06/02 11:26:08;;;;;;;1999.90;999.90;;;15.20;99.90;;;;;;4946256;28;20034;-74
2023/06/02 11:28:35;;;;;;;1999.90;999.90;;;15.30;99.90;;;;;;4944775;28;20120;-75
2023/06/02 11:31:14;;;;;;;1999.90;999.90;;;15.30;99.90;;;;;;4941285;28;20061;-72
2023/06/02 11:33:54;;;;;;;1999.90;999.90;;;15.30;99.90;;;;;;4944922;28;20042;-73
2023/06/02 11:36:29;;;;;;;1999.90;999.90;;;15.40;99.90;;;;;;4923167;28;20585;-72
2023/06/02 11:39:08;;;;;;;1999.90;999.90;;;15.50;99.90;;;;;;4943427;28;20050;-71
2023/06/02 11:41:35;;;;;;;1999.90;999.90;;;15.50;99.90;;;;;;4937071;28;20055;-73
2023/06/02 11:44:13;;;;;;;1999.90;999.90;;;15.50;99.90;;;;;;4941408;28;20049;-71
2023/06/02 11:46:45;;;;;;;1999.90;999.90;;;15.50;99.90;;;;;;4939668;28;20023;-71
2023/06/02 11:49:14;;;;;;;1999.90;999.90;;;15.50;99.90;;;;;;4944316;28;20110;-71
2023/06/02 11:51:41;;;;;;;1999.90;999.90;;;15.40;99.90;;;;;;4937628;28;20401;-71
2023/06/02 11:54:10;;;;;;;1999.90;999.90;;;15.40;99.90;;;;;;4943507;28;20042;-72
2023/06/02 11:56:37;;;;;;;1999.90;999.90;;;15.30;99.90;;;;;;4944197;28;20034;-73
2023/06/02 11:59:04;;;;;;;1999.90;999.90;;;15.20;99.90;;;;;;4946008;28;20748;-71
2023/06/02 12:01:33;;;;;;;1999.90;999.90;;;15.20;99.90;;;;;;4941040;28;20033;-71
2023/06/02 12:04:05;;;;;;;1999.90;999.90;;;15.10;99.90;;;;;;4944657;28;20437;-68
2023/06/02 12:06:46;;;;;;;1999.90;999.90;;;15.10;99.90;;;;;;4944902;28;20309;-69
2023/06/02 12:09:18;;;;;;;1999.90;999.90;;;15.10;99.90;;;;;;4944385;28;20486;-70
2023/06/02 12:11:47;;;;;;;1999.90;999.90;;;15.10;99.90;;;;;;4939577;28;20398;-71